Time,TemperatureF,DewpointF,PressureIn,WindDirection,WindDirectionDegrees,WindSpeedMPH,WindSpeedGustMPH,Humidity,HourlyPrecipIn,Conditions,Clouds,dailyrainin,SoftwareType,DateUTC
2013-01-11 00:12:00,15.0,6.0,29.90,NW,309,0.0,-999.0,68,-99.99,,,0.00,weatherlink.com 1.10,2013-01-11 07:12:00,
2013-01-11 00:27:00,15.3,6.0,29.88,NE,41,0.0,-999.0,68,-99.99,,,0.00,weatherlink.com 1.10,2013-01-11 07:27:00,
2013-01-11 00:42:00,15.6,7.0,29.86,NE,41,0.0,-999.0,68,-99.99,,,0.00,weatherlink.com 1.10,2013-01-11 07:42:00,
2013-01-11 00:57:00,15.3,7.0,29.84,NE,41,0.0,-999.0,69,-99.99,,,0.00,weatherlink.com 1.10,2013-01-11 07:57:00,
2013-01-11 01:12:00,15.2,7.0,29.84,NE,41,0.0,-999.0,71,-99.99,,,0.00,weatherlink.com 1.10,2013-01-11 08:12:00,
2013-01-11 01:27:00,15.5,8.0,29.82,NE,41,0.0,-999.0,72,-99.99,,,0.00,weatherlink.com 1.10,2013-01-11 08:27:00,
2013-01-11 01:42:00,15.6,9.0,29.81,NE,41,0.0,-999.0,74,-99.99,,,0.00,weatherlink.com 1.10,2013-01-11 08:42:00,
2013-01-11 01:57:00,15.4,9.0,29.80,NE,41,0.0,-999.0,74,-99.99,,,0.00,weatherlink.com 1.10,2013-01-11 08:57:00,
2013-01-11 02:12:00,14.9,8.0,29.78,NE,41,0.0,-999.0,74,-99.99,,,0.00,weatherlink.com 1.10,2013-01-11 09:12:00,
2013-01-11 02:27:00,14.2,7.0,29.76,NE,41,0.0,-999.0,74,-99.99,,,0.00,weatherlink.com 1.10,2013-01-11 09:27:00,
2013-01-11 02:42:00,13.9,8.0,29.75,NE,41,0.0,-999.0,76,-99.99,,,0.00,weatherlink.com 1.10,2013-01-11 09:42:00,
2013-01-11 02:57:00,14.1,8.0,29.74,NE,41,0.0,-999.0,78,-99.99,,,0.00,weatherlink.com 1.10,2013-01-11 09:57:00,
2013-01-11 03:12:00,14.4,9.0,29.72,NE,41,0.0,-999.0,78,-99.99,,,0.00,weatherlink.com 1.10,2013-01-11 10:12:00,
2013-01-11 03:27:00,14.5,9.0,29.70,NE,41,0.0,-999.0,78,-99.99,,,0.00,weatherlink.com 1.10,2013-01-11 10:27:00,
2013-01-11 03:42:00,14.6,10.0,29.68,NE,40,1.0,-999.0,80,-99.99,,,0.00,weatherlink.com 1.10,2013-01-11 10:42:00,
2013-01-11 03:57:00,14.8,10.0,29.67,NE,40,0.0,-999.0,81,-99.99,,,0.00,weatherlink.com 1.10,2013-01-11 10:57:00,
2013-01-11 04:12:00,14.7,10.0,29.64,NE,40,0.0,-999.0,82,-99.99,,,0.00,weatherlink.com 1.10,2013-01-11 11:12:00,
2013-01-11 04:27:00,14.7,10.0,29.62,NE,40,0.0,-999.0,82,-99.99,,,0.00,weatherlink.com 1.10,2013-01-11 11:27:00,
2013-01-11 04:42:00,14.7,10.0,29.61,NE,40,0.0,-999.0,83,-99.99,,,0.00,weatherlink.com 1.10,2013-01-11 11:42:00,
2013-01-11 04:57:00,14.7,11.0,29.60,NNE,12,0.0,-999.0,84,-99.99,,,0.00,weatherlink.com 1.10,2013-01-11 11:57:00,
2013-01-11 05:12:00,14.6,11.0,29.60,NNE,12,0.0,-999.0,84,-99.99,,,0.00,weatherlink.com 1.10,2013-01-11 12:12:00,
2013-01-11 05:27:00,14.5,11.0,29.58,North,11,0.0,-999.0,84,-99.99,,,0.00,weatherlink.com 1.10,2013-01-11 12:27:00,
2013-01-11 05:42:00,14.5,11.0,29.57,North,11,0.0,-999.0,84,-99.99,,,0.00,weatherlink.com 1.10,2013-01-11 12:42:00,
2013-01-11 05:57:00,14.3,10.0,29.56,North,11,0.0,-999.0,83,-99.99,,,0.00,weatherlink.com 1.10,2013-01-11 12:57:00,
2013-01-11 06:27:00,14.1,10.0,29.55,North,11,0.0,-999.0,84,-99.99,,,0.00,weatherlink.com 1.10,2013-01-11 13:27:00,
2013-01-11 06:42:00,14.0,10.0,29.54,North,11,0.0,-999.0,84,-99.99,,,0.00,weatherlink.com 1.10,2013-01-11 13:42:00,
2013-01-11 06:57:00,14.0,10.0,29.54,North,11,0.0,-999.0,84,-99.99,,,0.00,weatherlink.com 1.10,2013-01-11 13:57:00,
2013-01-11 07:12:00,14.1,10.0,29.56,North,11,1.0,-999.0,84,-99.99,,,0.00,weatherlink.com 1.10,2013-01-11 14:12:00,
2013-01-11 07:27:00,14.3,10.0,29.55,WNW,300,0.0,-999.0,84,-99.99,,,0.00,weatherlink.com 1.10,2013-01-11 14:27:00,
2013-01-11 07:42:00,14.4,10.0,29.52,WNW,300,0.0,-999.0,84,-99.99,,,0.00,weatherlink.com 1.10,2013-01-11 14:42:00,
2013-01-11 07:57:00,14.3,10.0,29.53,WNW,300,0.0,-999.0,83,-99.99,,,0.00,weatherlink.com 1.10,2013-01-11 14:57:00,
2013-01-11 08:12:00,14.7,10.0,29.53,NNE,17,0.0,-999.0,82,-99.99,,,0.00,weatherlink.com 1.10,2013-01-11 15:12:00,
2013-01-11 08:27:00,14.8,10.0,29.53,NNE,26,0.0,-999.0,81,-99.99,,,0.00,weatherlink.com 1.10,2013-01-11 15:27:00,
2013-01-11 08:42:00,14.0,7.0,29.51,East,95,1.0,-999.0,74,-99.99,,,0.00,weatherlink.com 1.10,2013-01-11 15:42:00,
2013-01-11 08:57:00,13.3,7.0,29.52,ESE,111,0.0,-999.0,76,-99.99,,,0.00,weatherlink.com 1.10,2013-01-11 15:57:00,
2013-01-11 09:12:00,12.6,6.0,29.51,NE,54,5.0,-999.0,74,-99.99,,,0.00,weatherlink.com 1.10,2013-01-11 16:12:00,
2013-01-11 09:27:00,11.7,4.0,29.52,East,90,5.0,-999.0,72,-99.99,,,0.00,weatherlink.com 1.10,2013-01-11 16:27:00,
2013-01-11 09:42:00,9.9,4.0,29.52,ESE,107,2.0,-999.0,75,-99.99,,,0.00,weatherlink.com 1.10,2013-01-11 16:42:00,
2013-01-11 09:57:00,8.0,2.0,29.54,East,85,1.0,-999.0,76,-99.99,,,0.00,weatherlink.com 1.10,2013-01-11 16:57:00,
2013-01-11 10:27:00,8.1,0.0,29.58,SSW,196,3.0,-999.0,69,-99.99,,,0.00,weatherlink.com 1.10,2013-01-11 17:27:00,
2013-01-11 10:42:00,9.3,0.0,29.58,ENE,59,1.0,-999.0,66,-99.99,,,0.00,weatherlink.com 1.10,2013-01-11 17:42:00,
2013-01-11 10:57:00,8.3,-1.0,29.58,SE,136,2.0,-999.0,65,-99.99,,,0.00,weatherlink.com 1.10,2013-01-11 17:57:00,
2013-01-11 11:12:00,6.7,-4.0,29.57,SE,130,2.0,-999.0,62,-99.99,,,0.00,weatherlink.com 1.10,2013-01-11 18:12:00,
2013-01-11 11:27:00,7.8,-4.0,29.57,East,98,0.0,-999.0,58,-99.99,,,0.00,weatherlink.com 1.10,2013-01-11 18:27:00,
2013-01-11 11:42:00,6.8,-4.0,29.57,East,89,1.0,-999.0,61,-99.99,,,0.00,weatherlink.com 1.10,2013-01-11 18:42:00,
2013-01-11 11:57:00,6.2,-4.0,29.59,East,96,2.0,-999.0,62,-99.99,,,0.00,weatherlink.com 1.10,2013-01-11 18:57:00,
2013-01-11 12:12:00,6.0,-6.0,29.59,SSE,157,4.0,-999.0,58,-99.99,,,0.00,weatherlink.com 1.10,2013-01-11 19:12:00,
2013-01-11 12:27:00,6.3,-7.0,29.58,ENE,57,1.0,-999.0,55,-99.99,,,0.00,weatherlink.com 1.10,2013-01-11 19:27:00,
2013-01-11 12:42:00,5.0,-4.0,29.59,ESE,103,0.0,-999.0,67,-99.99,,,0.00,weatherlink.com 1.10,2013-01-11 19:42:00,
2013-01-11 12:57:00,4.6,-3.0,29.58,NE,55,6.0,-999.0,71,-99.99,,,0.00,weatherlink.com 1.10,2013-01-11 19:57:00,
2013-01-11 13:12:00,4.0,-4.0,29.60,NE,46,2.0,-999.0,69,-99.99,,,0.00,weatherlink.com 1.10,2013-01-11 20:12:00,
2013-01-11 13:27:00,3.5,-4.0,29.61,NE,49,0.0,-999.0,71,-99.99,,,0.00,weatherlink.com 1.10,2013-01-11 20:27:00,
2013-01-11 13:42:00,3.2,-8.0,29.62,East,96,0.0,-999.0,60,-99.99,,,0.00,weatherlink.com 1.10,2013-01-11 20:42:00,
2013-01-11 13:57:00,4.4,-8.0,29.63,SSE,150,1.0,-999.0,56,-99.99,,,0.00,weatherlink.com 1.10,2013-01-11 20:57:00,
2013-01-11 14:12:00,4.8,-8.0,29.64,ENE,78,1.0,-999.0,55,-99.99,,,0.00,weatherlink.com 1.10,2013-01-11 21:12:00,
2013-01-11 14:27:00,4.8,-8.0,29.65,SSW,198,0.0,-999.0,56,-99.99,,,0.00,weatherlink.com 1.10,2013-01-11 21:27:00,
2013-01-11 14:42:00,4.7,-9.0,29.67,ENE,74,0.0,-999.0,53,-99.99,,,0.00,weatherlink.com 1.10,2013-01-11 21:42:00,
2013-01-11 14:57:00,3.6,-9.0,29.68,East,101,4.0,-999.0,55,-99.99,,,0.00,weatherlink.com 1.10,2013-01-11 21:57:00,
2013-01-11 15:12:00,3.4,-9.0,29.70,East,84,2.0,-999.0,57,-99.99,,,0.00,weatherlink.com 1.10,2013-01-11 22:12:00,
2013-01-11 15:27:00,3.2,-10.0,29.72,East,92,0.0,-999.0,55,-99.99,,,0.00,weatherlink.com 1.10,2013-01-11 22:27:00,
2013-01-11 15:42:00,3.6,-10.0,29.72,ESE,123,0.0,-999.0,53,-99.99,,,0.00,weatherlink.com 1.10,2013-01-11 22:42:00,
2013-01-11 15:57:00,3.7,-9.0,29.74,East,99,1.0,-999.0,56,-99.99,,,0.00,weatherlink.com 1.10,2013-01-11 22:57:00,
2013-01-11 16:12:00,3.3,-9.0,29.74,SSW,210,0.0,-999.0,56,-99.99,,,0.00,weatherlink.com 1.10,2013-01-11 23:12:00,
2013-01-11 16:27:00,2.6,-7.0,29.77,East,94,0.0,-999.0,65,-99.99,,,0.00,weatherlink.com 1.10,2013-01-11 23:27:00,
2013-01-11 16:42:00,1.8,-8.0,29.77,SSW,205,4.0,-999.0,65,-99.99,,,0.00,weatherlink.com 1.10,2013-01-11 23:42:00,
2013-01-11 16:57:00,1.1,-9.0,29.78,ESE,110,5.0,-999.0,62,-99.99,,,0.00,weatherlink.com 1.10,2013-01-11 23:57:00,
2013-01-11 17:12:00,0.4,-11.0,29.80,East,96,3.0,-999.0,59,-99.99,,,0.00,weatherlink.com 1.10,2013-01-12 00:12:00,
2013-01-11 17:27:00,-0.2,-13.0,29.83,ESE,114,2.0,-999.0,56,-99.99,,,0.00,weatherlink.com 1.10,2013-01-12 00:27:00,
2013-01-11 17:42:00,-0.5,-12.0,29.84,East,81,0.0,-999.0,57,-99.99,,,0.00,weatherlink.com 1.10,2013-01-12 00:42:00,
2013-01-11 17:57:00,-0.8,-12.0,29.86,ENE,62,0.0,-999.0,58,-99.99,,,0.00,weatherlink.com 1.10,2013-01-12 00:57:00,
2013-01-11 18:12:00,-1.0,-12.0,29.88,ENE,75,0.0,-999.0,59,-99.99,,,0.00,weatherlink.com 1.10,2013-01-12 01:12:00,
2013-01-11 18:27:00,-0.9,-11.0,29.89,South,181,0.0,-999.0,61,-99.99,,,0.00,weatherlink.com 1.10,2013-01-12 01:27:00,
2013-01-11 18:43:00,-1.0,-12.0,29.91,NE,45,1.0,-999.0,61,-99.99,,,0.00,weatherlink.com 1.10,2013-01-12 01:43:00,
2013-01-11 18:58:00,-1.3,-12.0,29.92,SSW,202,0.0,-999.0,61,-99.99,,,0.00,weatherlink.com 1.10,2013-01-12 01:58:00,
2013-01-11 19:12:00,-1.6,-12.0,29.93,ENE,77,0.0,-999.0,62,-99.99,,,0.00,weatherlink.com 1.10,2013-01-12 02:12:00,
2013-01-11 19:28:00,-1.8,-13.0,29.95,SW,219,0.0,-999.0,59,-99.99,,,0.00,weatherlink.com 1.10,2013-01-12 02:28:00,
2013-01-11 19:43:00,-2.4,-14.0,29.97,SSW,196,1.0,-999.0,59,-99.99,,,0.00,weatherlink.com 1.10,2013-01-12 02:43:00,
2013-01-11 19:57:00,-2.7,-15.0,29.98,SE,127,0.0,-999.0,57,-99.99,,,0.00,weatherlink.com 1.10,2013-01-12 02:57:00,
2013-01-11 20:13:00,-2.8,-15.0,30.00,SE,126,0.0,-999.0,57,-99.99,,,0.00,weatherlink.com 1.10,2013-01-12 03:13:00,
2013-01-11 20:27:00,-2.6,-15.0,30.01,ESE,123,0.0,-999.0,56,-99.99,,,0.00,weatherlink.com 1.10,2013-01-12 03:27:00,
2013-01-11 20:43:00,-2.2,-14.0,30.02,East,98,1.0,-999.0,57,-99.99,,,0.00,weatherlink.com 1.10,2013-01-12 03:43:00,
2013-01-11 20:57:00,-2.1,-14.0,30.03,East,81,0.0,-999.0,58,-99.99,,,0.00,weatherlink.com 1.10,2013-01-12 03:57:00,
2013-01-11 21:13:00,-2.2,-13.0,30.04,ENE,78,0.0,-999.0,60,-99.99,,,0.00,weatherlink.com 1.10,2013-01-12 04:13:00,
2013-01-11 21:27:00,-2.2,-12.0,30.05,East,80,0.0,-999.0,64,-99.99,,,0.00,weatherlink.com 1.10,2013-01-12 04:27:00,
2013-01-11 21:43:00,-2.6,-12.0,30.06,East,84,0.0,-999.0,64,-99.99,,,0.00,weatherlink.com 1.10,2013-01-12 04:43:00,
2013-01-11 21:57:00,-3.0,-12.0,30.07,East,84,0.0,-999.0,65,-99.99,,,0.00,weatherlink.com 1.10,2013-01-12 04:57:00,
2013-01-11 22:13:00,-3.3,-13.0,30.07,East,84,0.0,-999.0,63,-99.99,,,0.00,weatherlink.com 1.10,2013-01-12 05:13:00,
2013-01-11 22:27:00,-3.5,-14.0,30.09,East,84,0.0,-999.0,62,-99.99,,,0.00,weatherlink.com 1.10,2013-01-12 05:27:00,
2013-01-11 22:44:00,-3.6,-14.0,30.09,East,84,1.0,-999.0,60,-99.99,,,0.00,weatherlink.com 1.10,2013-01-12 05:44:00,
2013-01-11 22:58:00,-4.0,-15.0,30.09,ENE,69,0.0,-999.0,59,-99.99,,,0.00,weatherlink.com 1.10,2013-01-12 05:58:00,
2013-01-11 23:13:00,-4.6,-16.0,30.10,ENE,76,0.0,-999.0,59,-99.99,,,0.00,weatherlink.com 1.10,2013-01-12 06:13:00,
2013-01-11 23:27:00,-4.8,-16.0,30.11,ENE,76,0.0,-999.0,60,-99.99,,,0.00,weatherlink.com 1.10,2013-01-12 06:27:00,
2013-01-11 23:43:00,-5.1,-16.0,30.11,ENE,76,0.0,-999.0,60,-99.99,,,0.00,weatherlink.com 1.10,2013-01-12 06:43:00,
2013-01-11 23:57:00,-5.1,-16.0,30.11,East,84,0.0,-999.0,59,-99.99,,,0.00,weatherlink.com 1.10,2013-01-12 06:57:00,